ΕΜΥ, Εθνική Μετεωρολογική Υπηρεσία - Δελτία Καιρού, Προγνώσεις

ΑΕΡΟΝΑΥΤΙΛΙΑ

GREEK AIRPORTS CODES

TAF LGKS 260700Z 2609/2618 19020KT 9999 SCT018 TEMPO 2609/2615 SCT018 BKN050=

EUROPEAN AIRPORTS CODES

LFPO 261000Z 08007KT 9999 BKN006 BKN030 09/08 Q0995 NOSIG=